createdAt,value
2018-05-29T00:00:22.766Z,13.27
2018-05-29T00:02:49.559Z,12.10
2018-05-29T00:05:16.296Z,14.10
2018-05-29T00:07:43.081Z,14.53
2018-05-29T00:10:09.837Z,14.83
2018-05-29T00:12:36.601Z,14.53
2018-05-29T00:15:03.446Z,12.97
2018-05-29T00:17:30.228Z,12.53
2018-05-29T00:19:57.009Z,13.73
2018-05-29T00:22:23.831Z,12.10
2018-05-29T00:24:50.892Z,12.60
2018-05-29T00:27:17.660Z,12.70
2018-05-29T00:29:44.454Z,12.53
2018-05-29T00:32:11.230Z,12.17
2018-05-29T00:34:37.992Z,12.27
2018-05-29T00:37:04.814Z,12.73
2018-05-29T00:39:31.579Z,12.07
2018-05-29T00:41:59.001Z,11.60
2018-05-29T00:44:25.819Z,12.83
2018-05-29T00:46:52.591Z,12.17
2018-05-29T00:49:19.332Z,12.20
2018-05-29T00:51:46.117Z,12.87
2018-05-29T00:54:12.884Z,10.10
2018-05-29T00:56:39.635Z,13.03
2018-05-29T00:59:06.421Z,11.83
2018-05-29T01:01:33.185Z,12.40
2018-05-29T01:03:59.947Z,12.23
2018-05-29T01:06:27.515Z,12.13
2018-05-29T01:08:54.273Z,12.27
2018-05-29T01:11:21.040Z,12.03
2018-05-29T01:13:47.832Z,10.90
2018-05-29T01:16:14.586Z,11.80
2018-05-29T01:18:41.343Z,12.00
2018-05-29T01:21:08.122Z,11.00
2018-05-29T01:23:34.890Z,11.57
2018-05-29T01:26:01.665Z,12.00
2018-05-29T01:28:28.471Z,11.23
2018-05-29T01:30:55.227Z,12.23
2018-05-29T01:33:22.014Z,11.00
2018-05-29T01:35:48.809Z,9.17
2018-05-29T01:38:15.577Z,10.20
2018-05-29T01:40:42.342Z,9.87
2018-05-29T01:43:09.143Z,9.23
2018-05-29T01:45:35.896Z,9.13
2018-05-29T01:48:02.659Z,9.43
2018-05-29T01:50:29.460Z,9.90
2018-05-29T01:52:56.941Z,9.93
2018-05-29T01:55:23.684Z,9.57
2018-05-29T01:57:50.469Z,7.43
2018-05-29T02:00:17.231Z,8.83
2018-05-29T02:02:44.034Z,10.00
2018-05-29T02:05:10.809Z,10.07
2018-05-29T02:07:37.574Z,10.00
2018-05-29T02:10:04.329Z,9.93
2018-05-29T02:12:31.162Z,10.30
2018-05-29T02:14:57.913Z,8.67
2018-05-29T02:17:24.680Z,8.63
2018-05-29T02:19:51.484Z,9.73
2018-05-29T02:22:18.268Z,9.20
2018-05-29T02:24:45.036Z,9.80
2018-05-29T02:27:11.822Z,9.50
2018-05-29T02:29:38.600Z,8.53
2018-05-29T02:32:05.370Z,8.60
2018-05-29T02:34:32.188Z,10.17
2018-05-29T02:36:58.924Z,9.80
2018-05-29T02:39:25.693Z,10.57
2018-05-29T02:41:52.507Z,10.37
2018-05-29T02:44:19.273Z,9.73
2018-05-29T02:46:46.008Z,8.23
2018-05-29T02:49:12.817Z,9.47
2018-05-29T02:51:39.559Z,9.33
2018-05-29T02:54:06.298Z,8.83
2018-05-29T02:56:33.105Z,10.20
2018-05-29T02:58:59.868Z,9.37
2018-05-29T03:01:26.628Z,7.43
2018-05-29T03:03:53.426Z,7.77
2018-05-29T03:06:20.165Z,8.73
2018-05-29T03:08:46.946Z,7.57
2018-05-29T03:11:13.752Z,9.13
2018-05-29T03:13:40.485Z,8.60
2018-05-29T03:16:07.228Z,7.93
2018-05-29T03:18:34.018Z,8.87
2018-05-29T03:21:00.953Z,7.63
2018-05-29T03:23:27.683Z,8.10
2018-05-29T03:25:54.468Z,7.23
2018-05-29T03:28:21.244Z,7.07
2018-05-29T03:30:48.012Z,8.10
2018-05-29T03:33:14.791Z,7.30
2018-05-29T03:35:41.565Z,7.13
2018-05-29T03:38:08.301Z,6.07
2018-05-29T03:40:35.109Z,7.27
2018-05-29T03:43:01.882Z,6.87
2018-05-29T03:45:28.629Z,7.63
2018-05-29T03:47:55.416Z,6.80
2018-05-29T03:50:22.664Z,6.47
2018-05-29T03:52:49.795Z,7.57
2018-05-29T03:55:17.667Z,7.60
2018-05-29T03:57:44.435Z,7.30
2018-05-29T04:00:11.197Z,7.17
2018-05-29T04:02:37.991Z,8.70
2018-05-29T04:05:04.749Z,7.60
2018-05-29T04:07:31.493Z,7.57
2018-05-29T04:09:58.320Z,8.00
2018-05-29T04:12:25.324Z,6.10
2018-05-29T04:14:52.103Z,7.10
2018-05-29T04:17:18.904Z,7.57
2018-05-29T04:19:45.657Z,8.23
2018-05-29T04:22:12.400Z,7.17
2018-05-29T04:24:39.224Z,7.53
2018-05-29T04:27:05.965Z,7.93
2018-05-29T04:29:32.711Z,7.30
2018-05-29T04:31:59.493Z,7.67
2018-05-29T04:34:26.234Z,6.83
2018-05-29T04:36:52.977Z,7.90
2018-05-29T04:39:19.748Z,7.70
2018-05-29T04:41:46.518Z,9.00
2018-05-29T04:44:13.299Z,9.50
2018-05-29T04:46:40.112Z,8.07
2018-05-29T04:49:06.883Z,8.40
2018-05-29T04:51:33.625Z,9.03
2018-05-29T04:54:00.413Z,7.23
2018-05-29T04:56:27.190Z,9.07
2018-05-29T04:58:53.934Z,9.93
2018-05-29T05:01:20.724Z,11.00
2018-05-29T05:03:47.516Z,9.40
2018-05-29T05:06:14.285Z,12.90
2018-05-29T05:08:41.084Z,10.37
2018-05-29T05:11:07.848Z,9.80
2018-05-29T05:13:34.941Z,10.57
2018-05-29T05:16:01.732Z,10.20
2018-05-29T05:18:28.835Z,10.40
2018-05-29T05:20:55.600Z,10.60
2018-05-29T05:23:22.380Z,9.13
2018-05-29T05:25:49.137Z,10.03
2018-05-29T05:28:15.916Z,10.57
2018-05-29T05:30:42.703Z,11.23
2018-05-29T05:33:09.907Z,10.93
2018-05-29T05:35:36.649Z,13.23
2018-05-29T05:38:03.457Z,13.53
2018-05-29T05:40:30.209Z,10.67
2018-05-29T05:42:56.964Z,9.80
2018-05-29T05:45:23.792Z,10.90
2018-05-29T05:47:50.556Z,10.47
2018-05-29T05:50:17.340Z,9.53
2018-05-29T05:52:44.195Z,8.37
2018-05-29T05:55:10.947Z,9.00
2018-05-29T05:57:37.723Z,9.93
2018-05-29T06:00:05.272Z,10.00
2018-05-29T06:02:32.011Z,11.13
2018-05-29T06:04:58.797Z,10.33
2018-05-29T06:07:25.580Z,9.83
2018-05-29T06:09:52.333Z,10.63
2018-05-29T06:12:19.091Z,8.60
2018-05-29T06:14:45.899Z,10.33
2018-05-29T06:17:12.649Z,9.17
2018-05-29T06:19:39.450Z,9.60
2018-05-29T06:22:06.235Z,8.23
2018-05-29T06:24:33.017Z,8.67
2018-05-29T06:26:59.774Z,8.03
2018-05-29T06:29:26.579Z,8.20
2018-05-29T06:31:53.318Z,8.60
2018-05-29T06:34:20.061Z,9.23
2018-05-29T06:36:46.870Z,9.30
2018-05-29T06:39:13.623Z,8.33
2018-05-29T06:41:40.364Z,8.97
2018-05-29T06:44:07.153Z,8.13
2018-05-29T06:46:33.904Z,9.03
2018-05-29T06:49:00.696Z,7.63
2018-05-29T06:51:27.551Z,7.67
2018-05-29T06:53:54.288Z,8.13
2018-05-29T06:56:21.037Z,9.17
2018-05-29T06:58:47.839Z,9.03
2018-05-29T07:01:14.615Z,9.20
2018-05-29T07:03:41.422Z,8.30
2018-05-29T07:06:08.233Z,9.43
2018-05-29T07:08:35.038Z,8.60
2018-05-29T07:11:01.798Z,8.80
2018-05-29T07:13:28.609Z,7.53
2018-05-29T07:15:55.365Z,9.67
2018-05-29T07:18:22.179Z,9.07
2018-05-29T07:20:48.964Z,9.30
2018-05-29T07:23:15.728Z,8.60
2018-05-29T07:25:42.492Z,9.30
2018-05-29T07:28:09.353Z,8.77
2018-05-29T07:30:36.133Z,9.80
2018-05-29T07:33:02.935Z,8.67
2018-05-29T07:35:29.724Z,9.57
2018-05-29T07:37:56.653Z,9.30
2018-05-29T07:40:23.467Z,10.30
2018-05-29T07:42:50.253Z,9.83
2018-05-29T07:45:17.121Z,10.33
2018-05-29T07:47:43.849Z,9.50
2018-05-29T07:50:10.647Z,10.33
2018-05-29T07:52:37.434Z,9.60
2018-05-29T07:55:04.212Z,9.97
2018-05-29T07:57:31.009Z,9.57
2018-05-29T07:59:57.814Z,9.60
2018-05-29T08:02:24.569Z,10.40
2018-05-29T08:04:51.396Z,9.30
2018-05-29T08:07:18.181Z,10.27
2018-05-29T08:09:44.956Z,9.47
2018-05-29T08:12:11.796Z,10.00
2018-05-29T08:14:38.563Z,10.03
2018-05-29T08:17:05.347Z,9.10
2018-05-29T08:19:32.163Z,9.77
2018-05-29T08:21:58.957Z,10.53
2018-05-29T08:24:25.745Z,10.33
2018-05-29T08:26:52.565Z,10.00
2018-05-29T08:29:19.331Z,10.10
2018-05-29T08:31:46.130Z,11.13
2018-05-29T08:34:12.930Z,9.47
2018-05-29T08:36:39.714Z,10.53
2018-05-29T08:39:06.502Z,10.37
2018-05-29T08:41:33.309Z,9.53
2018-05-29T08:44:00.068Z,10.47
2018-05-29T08:46:26.945Z,10.50
2018-05-29T08:48:53.722Z,10.63
2018-05-29T08:51:20.472Z,11.07
2018-05-29T08:53:47.313Z,11.00
2018-05-29T08:56:14.154Z,9.67
2018-05-29T08:58:40.935Z,10.03
2018-05-29T09:01:07.669Z,9.77
2018-05-29T09:03:34.484Z,10.80
2018-05-29T09:06:01.237Z,9.37
2018-05-29T09:08:28.024Z,9.57
2018-05-29T09:10:54.816Z,11.60
2018-05-29T09:13:21.589Z,11.30
2018-05-29T09:15:48.384Z,9.90
2018-05-29T09:18:15.167Z,11.70
2018-05-29T09:20:41.933Z,10.23
2018-05-29T09:23:08.684Z,11.10
2018-05-29T09:25:35.482Z,9.47
2018-05-29T09:28:02.226Z,11.10
2018-05-29T09:30:28.990Z,10.53
2018-05-29T09:32:55.789Z,10.40
2018-05-29T09:35:22.548Z,10.77
2018-05-29T09:37:49.307Z,10.63
2018-05-29T09:40:16.184Z,9.57
2018-05-29T09:42:42.940Z,10.00
2018-05-29T09:45:09.701Z,10.23
2018-05-29T09:47:36.497Z,12.50
2018-05-29T09:50:03.291Z,10.13
2018-05-29T09:52:30.056Z,11.10
2018-05-29T09:54:56.873Z,11.57
2018-05-29T09:57:23.652Z,12.20
2018-05-29T09:59:50.411Z,12.23
2018-05-29T10:02:17.207Z,10.80
2018-05-29T10:04:43.971Z,12.13
2018-05-29T10:07:10.777Z,11.00
2018-05-29T10:09:37.550Z,10.93
2018-05-29T10:12:04.328Z,12.93
2018-05-29T10:14:31.095Z,12.03
2018-05-29T10:16:57.919Z,13.40
2018-05-29T10:19:24.757Z,11.50
2018-05-29T10:21:51.527Z,12.90
2018-05-29T10:24:18.309Z,11.87
2018-05-29T10:26:45.080Z,11.23
2018-05-29T10:29:11.840Z,11.50
2018-05-29T10:31:38.638Z,12.47
2018-05-29T10:34:05.412Z,12.67
2018-05-29T10:36:32.162Z,14.20
2018-05-29T10:38:58.987Z,12.23
2018-05-29T10:41:25.767Z,12.90
2018-05-29T10:43:52.521Z,13.40
2018-05-29T10:46:19.328Z,12.90
2018-05-29T10:48:46.107Z,12.40
2018-05-29T10:51:12.906Z,13.40
2018-05-29T10:53:39.714Z,14.20
2018-05-29T10:56:06.546Z,13.57
2018-05-29T10:58:33.308Z,15.03
2018-05-29T11:01:00.103Z,14.80
2018-05-29T11:03:26.883Z,12.80
2018-05-29T11:05:53.661Z,12.87
2018-05-29T11:08:20.468Z,13.70
2018-05-29T11:10:47.253Z,13.70
2018-05-29T11:13:14.028Z,13.27
2018-05-29T11:15:40.829Z,12.00
2018-05-29T11:18:07.608Z,13.20
2018-05-29T11:20:34.400Z,13.10
2018-05-29T11:23:02.055Z,12.50
2018-05-29T11:25:28.836Z,11.80
2018-05-29T11:27:55.616Z,13.80
2018-05-29T11:30:22.408Z,11.80
2018-05-29T11:32:49.188Z,13.73
2018-05-29T11:35:16.269Z,12.83
2018-05-29T11:37:43.696Z,12.70
2018-05-29T11:40:10.467Z,12.53
2018-05-29T11:42:37.226Z,15.13
2018-05-29T11:45:04.129Z,15.30
2018-05-29T11:47:30.873Z,13.50
2018-05-29T11:49:57.653Z,13.93
2018-05-29T11:52:24.444Z,14.60
2018-05-29T11:54:51.278Z,14.27
2018-05-29T11:57:18.040Z,14.03
2018-05-29T11:59:44.825Z,13.10
2018-05-29T12:02:11.597Z,14.93
2018-05-29T12:04:38.352Z,13.40
2018-05-29T12:07:05.187Z,13.90
2018-05-29T12:09:31.952Z,13.43
2018-05-29T12:12:04.570Z,13.87
2018-05-29T12:14:31.349Z,13.77
2018-05-29T12:16:58.160Z,15.30
2018-05-29T12:19:24.916Z,15.10
2018-05-29T12:21:51.701Z,12.30
2018-05-29T12:24:18.520Z,12.17
2018-05-29T12:26:45.313Z,11.27
2018-05-29T12:29:12.129Z,11.03
2018-05-29T12:31:39.658Z,11.30
2018-05-29T12:34:06.457Z,10.87
2018-05-29T12:36:33.300Z,11.50
2018-05-29T12:39:00.071Z,11.97
2018-05-29T12:41:26.864Z,11.03
2018-05-29T12:43:53.645Z,12.13
2018-05-29T12:46:20.436Z,10.90
2018-05-29T12:48:47.204Z,11.10
2018-05-29T12:51:14.032Z,9.43
2018-05-29T12:53:40.799Z,10.07
2018-05-29T12:56:07.581Z,10.50
2018-05-29T12:58:34.388Z,10.07
2018-05-29T13:01:01.160Z,9.60
2018-05-29T13:03:27.941Z,11.50
2018-05-29T13:05:54.757Z,9.70
2018-05-29T13:08:21.502Z,10.40
2018-05-29T13:10:48.271Z,9.00
2018-05-29T13:13:19.358Z,9.60
2018-05-29T13:15:46.125Z,9.57
2018-05-29T13:18:12.897Z,8.10
2018-05-29T13:20:39.693Z,8.83
2018-05-29T13:23:06.467Z,8.57
2018-05-29T13:25:33.251Z,8.50
2018-05-29T13:28:00.065Z,8.50
2018-05-29T13:30:26.816Z,8.30
2018-05-29T13:32:53.568Z,7.90
2018-05-29T13:35:20.424Z,7.90
2018-05-29T13:37:47.150Z,8.47
2018-05-29T13:40:13.912Z,9.40
2018-05-29T13:42:40.711Z,7.90
2018-05-29T13:45:07.480Z,8.50
2018-05-29T13:47:34.419Z,8.00
2018-05-29T13:50:01.215Z,6.60
2018-05-29T13:52:27.998Z,6.23
2018-05-29T13:54:54.746Z,6.60
2018-05-29T13:57:21.536Z,7.00
2018-05-29T13:59:48.295Z,6.70
2018-05-29T14:02:15.065Z,5.90
2018-05-29T14:04:41.907Z,6.30
2018-05-29T14:07:08.644Z,6.27
2018-05-29T14:09:35.404Z,5.87
2018-05-29T14:12:02.217Z,6.30
2018-05-29T14:14:28.975Z,5.20
2018-05-29T14:16:56.208Z,6.70
2018-05-29T14:19:22.998Z,5.57
2018-05-29T14:21:49.822Z,5.10
2018-05-29T14:24:16.602Z,4.97
2018-05-29T14:26:43.420Z,5.57
2018-05-29T14:29:10.174Z,5.37
2018-05-29T14:31:36.951Z,4.97
2018-05-29T14:34:03.770Z,4.83
2018-05-29T14:36:30.509Z,5.00
2018-05-29T14:38:57.279Z,5.10
2018-05-29T14:41:24.071Z,4.93
2018-05-29T14:43:50.881Z,5.30
2018-05-29T14:46:17.661Z,5.30
2018-05-29T14:48:44.477Z,5.37
2018-05-29T14:51:11.221Z,4.73
2018-05-29T14:53:37.977Z,5.43
2018-05-29T14:56:04.757Z,5.33
2018-05-29T14:58:31.552Z,4.57
2018-05-29T15:00:58.323Z,3.93
2018-05-29T15:03:25.179Z,5.10
2018-05-29T15:05:51.900Z,5.27
2018-05-29T15:08:18.649Z,5.23
2018-05-29T15:10:45.464Z,4.33
2018-05-29T15:13:12.224Z,4.70
2018-05-29T15:15:39.009Z,5.13
2018-05-29T15:18:06.532Z,4.70
2018-05-29T15:20:33.301Z,5.07
2018-05-29T15:23:00.439Z,5.23
2018-05-29T15:25:27.235Z,4.70
2018-05-29T15:27:53.986Z,5.00
2018-05-29T15:30:20.756Z,5.60
2018-05-29T15:32:47.556Z,5.53
2018-05-29T15:35:14.293Z,5.03
2018-05-29T15:37:41.060Z,5.47
2018-05-29T15:40:07.878Z,5.00
2018-05-29T15:42:34.681Z,4.90
2018-05-29T15:45:01.444Z,4.77
2018-05-29T15:47:28.251Z,5.03
2018-05-29T15:49:55.027Z,4.60
2018-05-29T15:52:22.505Z,5.00
2018-05-29T15:54:49.274Z,4.80
2018-05-29T15:57:16.047Z,4.87
2018-05-29T15:59:42.791Z,4.67
2018-05-29T16:02:09.574Z,4.70
2018-05-29T16:04:36.328Z,5.50
2018-05-29T16:07:03.084Z,5.03
2018-05-29T16:09:29.880Z,4.10
2018-05-29T16:11:56.653Z,5.03
2018-05-29T16:14:23.406Z,5.50
2018-05-29T16:16:50.212Z,5.53
2018-05-29T16:19:16.967Z,4.83
2018-05-29T16:21:43.713Z,5.20
2018-05-29T16:24:10.496Z,5.23
2018-05-29T16:26:37.280Z,5.47
2018-05-29T16:29:04.021Z,5.07
2018-05-29T16:31:30.851Z,5.50
2018-05-29T16:33:57.602Z,5.30
2018-05-29T16:36:24.368Z,4.83
2018-05-29T16:38:51.168Z,6.23
2018-05-29T16:41:17.914Z,6.80
2018-05-29T16:43:44.656Z,6.10
2018-05-29T16:46:11.852Z,5.30
2018-05-29T16:48:38.632Z,4.97
2018-05-29T16:51:05.841Z,5.20
2018-05-29T16:53:32.668Z,5.07
2018-05-29T16:55:59.447Z,5.83
2018-05-29T16:58:26.220Z,5.70
2018-05-29T17:00:53.039Z,5.40
2018-05-29T17:03:19.802Z,6.63
2018-05-29T17:05:46.565Z,5.50
2018-05-29T17:08:13.376Z,5.43
2018-05-29T17:10:40.133Z,5.60
2018-05-29T17:13:06.890Z,5.27
2018-05-29T17:15:33.690Z,5.63
2018-05-29T17:18:00.457Z,5.83
2018-05-29T17:20:27.229Z,6.63
2018-05-29T17:22:54.035Z,6.33
2018-05-29T17:25:20.804Z,5.30
2018-05-29T17:27:47.580Z,5.03
2018-05-29T17:30:14.423Z,5.67
2018-05-29T17:32:41.177Z,5.30
2018-05-29T17:35:07.953Z,5.00
2018-05-29T17:37:34.752Z,5.30
2018-05-29T17:40:01.540Z,5.50
2018-05-29T17:42:28.311Z,5.07
2018-05-29T17:44:55.164Z,4.93
2018-05-29T17:47:21.924Z,5.40
2018-05-29T17:49:48.708Z,5.27
2018-05-29T17:52:15.576Z,5.50
2018-05-29T17:54:42.321Z,5.00
2018-05-29T17:57:09.076Z,4.50
2018-05-29T17:59:35.883Z,4.90
2018-05-29T18:02:02.648Z,5.50
2018-05-29T18:04:29.433Z,5.50
2018-05-29T18:06:56.255Z,4.73
2018-05-29T18:09:23.045Z,5.10
2018-05-29T18:11:49.813Z,4.73
2018-05-29T18:14:16.624Z,5.50
2018-05-29T18:16:43.392Z,5.63
2018-05-29T18:19:10.145Z,4.50
2018-05-29T18:21:36.959Z,5.10
2018-05-29T18:24:04.220Z,4.70
2018-05-29T18:26:31.505Z,4.73
2018-05-29T18:28:58.289Z,4.40
2018-05-29T18:31:25.071Z,4.90
2018-05-29T18:33:51.841Z,4.60
2018-05-29T18:36:18.653Z,4.67
2018-05-29T18:38:45.417Z,4.97
2018-05-29T18:41:12.480Z,4.53
2018-05-29T18:43:39.288Z,4.53
2018-05-29T18:46:06.055Z,4.87
2018-05-29T18:48:33.163Z,5.47
2018-05-29T18:50:59.953Z,5.40
2018-05-29T18:53:26.732Z,5.00
2018-05-29T18:55:53.617Z,5.90
2018-05-29T18:58:20.425Z,5.50
2018-05-29T19:00:47.188Z,5.07
2018-05-29T19:03:13.939Z,5.20
2018-05-29T19:05:41.348Z,5.47
2018-05-29T19:08:08.410Z,4.83
2018-05-29T19:10:35.221Z,5.37
2018-05-29T19:13:02.011Z,5.10
2018-05-29T19:15:28.797Z,5.50
2018-05-29T19:17:55.639Z,5.63
2018-05-29T19:20:22.791Z,5.03
2018-05-29T19:22:49.592Z,5.27
2018-05-29T19:25:16.754Z,5.60
2018-05-29T19:27:43.915Z,6.37
2018-05-29T19:30:10.700Z,4.80
2018-05-29T19:32:37.473Z,4.97
2018-05-29T19:35:04.288Z,4.93
2018-05-29T19:37:31.033Z,4.67
2018-05-29T19:39:57.784Z,5.50
2018-05-29T19:42:24.602Z,4.60
2018-05-29T19:44:51.405Z,5.03
2018-05-29T19:47:18.172Z,5.30
2018-05-29T19:49:44.958Z,5.17
2018-05-29T19:52:11.998Z,5.27
2018-05-29T19:54:38.893Z,5.77
2018-05-29T19:57:05.938Z,4.90
2018-05-29T19:59:32.725Z,4.50
2018-05-29T20:01:59.732Z,5.90
2018-05-29T20:04:26.811Z,4.73
2018-05-29T20:06:53.633Z,4.83
2018-05-29T20:09:20.411Z,5.47
2018-05-29T20:11:47.226Z,5.07
2018-05-29T20:14:14.241Z,4.37
2018-05-29T20:16:40.997Z,4.60
2018-05-29T20:19:07.807Z,4.30
2018-05-29T20:21:34.608Z,5.67
2018-05-29T20:24:01.380Z,4.37
2018-05-29T20:26:28.601Z,4.63
2018-05-29T20:28:55.375Z,4.40
2018-05-29T20:31:22.195Z,4.00
2018-05-29T20:33:48.998Z,4.13
2018-05-29T20:36:16.009Z,5.20
2018-05-29T20:38:42.761Z,4.10
2018-05-29T20:41:10.255Z,4.50
2018-05-29T20:43:37.497Z,5.13
2018-05-29T20:46:04.276Z,4.60
2018-05-29T20:48:31.103Z,4.80
2018-05-29T20:50:57.877Z,4.63
2018-05-29T20:53:24.652Z,5.17
2018-05-29T20:55:51.459Z,5.50
2018-05-29T20:58:18.205Z,5.30
2018-05-29T21:00:44.988Z,5.50
2018-05-29T21:03:11.786Z,4.40
2018-05-29T21:05:38.530Z,4.80
2018-05-29T21:08:05.431Z,4.90
2018-05-29T21:10:32.217Z,5.17
2018-05-29T21:12:58.983Z,5.50
2018-05-29T21:15:25.767Z,4.50
2018-05-29T21:17:52.593Z,5.13
2018-05-29T21:20:19.392Z,5.07
2018-05-29T21:22:46.451Z,5.20
2018-05-29T21:25:13.248Z,5.20
2018-05-29T21:27:40.032Z,5.70
2018-05-29T21:30:06.773Z,4.93
2018-05-29T21:32:33.548Z,4.70
2018-05-29T21:35:00.298Z,5.47
2018-05-29T21:37:27.048Z,5.40
2018-05-29T21:39:53.845Z,6.40
2018-05-29T21:42:20.611Z,6.03
2018-05-29T21:44:47.349Z,5.67
2018-05-29T21:47:14.173Z,5.60
2018-05-29T21:49:40.928Z,6.80
2018-05-29T21:52:07.677Z,5.80
2018-05-29T21:54:34.464Z,6.13
2018-05-29T21:57:01.240Z,6.57
2018-05-29T21:59:28.002Z,5.77
2018-05-29T22:01:54.810Z,6.80
2018-05-29T22:04:21.549Z,6.10
2018-05-29T22:06:48.315Z,6.63
2018-05-29T22:09:15.137Z,5.97
2018-05-29T22:11:41.897Z,6.20
2018-05-29T22:14:08.701Z,6.00
2018-05-29T22:16:35.480Z,5.70
2018-05-29T22:19:02.252Z,6.00
2018-05-29T22:21:29.024Z,5.87
2018-05-29T22:23:55.832Z,6.37
2018-05-29T22:26:22.573Z,5.90
2018-05-29T22:28:49.347Z,6.33
2018-05-29T22:31:16.125Z,6.57
2018-05-29T22:33:42.915Z,7.43
2018-05-29T22:36:09.657Z,6.20
2018-05-29T22:38:36.456Z,5.90
2018-05-29T22:41:03.235Z,6.20
2018-05-29T22:43:29.977Z,5.23
2018-05-29T22:45:56.771Z,6.43
2018-05-29T22:48:23.546Z,6.43
2018-05-29T22:50:50.338Z,5.87
2018-05-29T22:53:17.131Z,6.80
2018-05-29T22:55:43.899Z,5.80
2018-05-29T22:58:10.661Z,6.07
2018-05-29T23:00:37.459Z,6.63
2018-05-29T23:03:04.204Z,5.60
2018-05-29T23:05:30.945Z,6.50
2018-05-29T23:07:57.717Z,5.83
2018-05-29T23:10:24.501Z,5.70
2018-05-29T23:12:51.277Z,6.53
2018-05-29T23:15:18.053Z,6.40
2018-05-29T23:17:44.821Z,6.60
2018-05-29T23:20:11.584Z,6.07
2018-05-29T23:22:38.399Z,5.57
2018-05-29T23:25:05.172Z,6.60
2018-05-29T23:27:31.946Z,7.10
2018-05-29T23:29:58.756Z,5.97
2018-05-29T23:32:25.501Z,6.10
2018-05-29T23:34:52.271Z,6.10
2018-05-29T23:37:19.054Z,6.53
2018-05-29T23:39:45.832Z,5.87
2018-05-29T23:42:12.568Z,6.50
2018-05-29T23:44:39.361Z,6.73
2018-05-29T23:47:06.342Z,6.13
2018-05-29T23:49:33.093Z,5.80
2018-05-29T23:51:59.882Z,5.87
2018-05-29T23:54:26.626Z,7.17
2018-05-29T23:56:53.394Z,6.07
2018-05-29T23:59:20.182Z,6.50
